sensor_id;sensor_type;location;lat;lon;timestamp;P1;durP1;ratioP1;P2;durP2;ratioP2
46407;SDS011;32110;45.724;21.276;2024-02-26T00:00:02;24.58;;;13.07;;
46407;SDS011;32110;45.724;21.276;2024-02-26T00:02:28;25.02;;;12.48;;
46407;SDS011;32110;45.724;21.276;2024-02-26T00:04:53;24.30;;;12.50;;
46407;SDS011;32110;45.724;21.276;2024-02-26T00:07:18;22.43;;;12.83;;
46407;SDS011;32110;45.724;21.276;2024-02-26T00:09:44;20.13;;;12.48;;
46407;SDS011;32110;45.724;21.276;2024-02-26T00:12:09;25.33;;;12.05;;
46407;SDS011;32110;45.724;21.276;2024-02-26T00:14:34;21.52;;;11.30;;
46407;SDS011;32110;45.724;21.276;2024-02-26T00:17:00;21.02;;;11.50;;
46407;SDS011;32110;45.724;21.276;2024-02-26T00:19:25;20.17;;;11.88;;
46407;SDS011;32110;45.724;21.276;2024-02-26T00:21:51;23.08;;;11.60;;
46407;SDS011;32110;45.724;21.276;2024-02-26T00:24:16;27.83;;;11.50;;
46407;SDS011;32110;45.724;21.276;2024-02-26T00:26:41;21.10;;;11.10;;
46407;SDS011;32110;45.724;21.276;2024-02-26T00:29:07;25.33;;;11.57;;
46407;SDS011;32110;45.724;21.276;2024-02-26T00:31:32;21.70;;;11.77;;
46407;SDS011;32110;45.724;21.276;2024-02-26T00:33:57;18.95;;;11.60;;
46407;SDS011;32110;45.724;21.276;2024-02-26T00:36:23;19.60;;;11.80;;
46407;SDS011;32110;45.724;21.276;2024-02-26T00:38:48;17.65;;;11.60;;
46407;SDS011;32110;45.724;21.276;2024-02-26T00:41:19;23.10;;;11.73;;
46407;SDS011;32110;45.724;21.276;2024-02-26T00:43:45;19.17;;;11.23;;
46407;SDS011;32110;45.724;21.276;2024-02-26T00:46:10;21.00;;;11.70;;
46407;SDS011;32110;45.724;21.276;2024-02-26T00:48:35;22.00;;;11.73;;
46407;SDS011;32110;45.724;21.276;2024-02-26T00:51:02;25.27;;;12.10;;
46407;SDS011;32110;45.724;21.276;2024-02-26T00:53:30;23.85;;;11.88;;
46407;SDS011;32110;45.724;21.276;2024-02-26T00:55:55;21.27;;;11.55;;
46407;SDS011;32110;45.724;21.276;2024-02-26T00:58:20;22.50;;;10.73;;
46407;SDS011;32110;45.724;21.276;2024-02-26T01:00:46;21.90;;;11.07;;
46407;SDS011;32110;45.724;21.276;2024-02-26T01:03:11;18.27;;;11.40;;
46407;SDS011;32110;45.724;21.276;2024-02-26T01:05:36;21.27;;;11.65;;
46407;SDS011;32110;45.724;21.276;2024-02-26T01:08:03;22.70;;;11.85;;
46407;SDS011;32110;45.724;21.276;2024-02-26T01:10:28;21.17;;;11.93;;
46407;SDS011;32110;45.724;21.276;2024-02-26T01:12:54;19.70;;;11.85;;
46407;SDS011;32110;45.724;21.276;2024-02-26T01:15:19;23.63;;;11.40;;
46407;SDS011;32110;45.724;21.276;2024-02-26T01:17:48;22.23;;;11.70;;
46407;SDS011;32110;45.724;21.276;2024-02-26T01:20:14;23.00;;;11.70;;
46407;SDS011;32110;45.724;21.276;2024-02-26T01:22:39;23.67;;;12.93;;
46407;SDS011;32110;45.724;21.276;2024-02-26T01:25:06;23.75;;;11.48;;
46407;SDS011;32110;45.724;21.276;2024-02-26T01:27:32;20.58;;;12.50;;
46407;SDS011;32110;45.724;21.276;2024-02-26T01:29:57;23.15;;;12.75;;
46407;SDS011;32110;45.724;21.276;2024-02-26T01:32:22;25.10;;;12.50;;
46407;SDS011;32110;45.724;21.276;2024-02-26T01:34:47;26.80;;;12.43;;
46407;SDS011;32110;45.724;21.276;2024-02-26T01:37:13;23.67;;;11.85;;
46407;SDS011;32110;45.724;21.276;2024-02-26T01:39:38;21.80;;;11.57;;
46407;SDS011;32110;45.724;21.276;2024-02-26T01:42:05;20.00;;;12.50;;
46407;SDS011;32110;45.724;21.276;2024-02-26T01:44:31;22.30;;;11.73;;
46407;SDS011;32110;45.724;21.276;2024-02-26T01:46:56;22.95;;;11.32;;
46407;SDS011;32110;45.724;21.276;2024-02-26T01:49:21;20.88;;;12.30;;
46407;SDS011;32110;45.724;21.276;2024-02-26T01:51:47;24.17;;;11.95;;
46407;SDS011;32110;45.724;21.276;2024-02-26T01:54:12;23.65;;;12.77;;
46407;SDS011;32110;45.724;21.276;2024-02-26T01:56:37;29.25;;;13.25;;
46407;SDS011;32110;45.724;21.276;2024-02-26T01:59:03;21.20;;;12.77;;
46407;SDS011;32110;45.724;21.276;2024-02-26T02:01:31;22.38;;;11.27;;
46407;SDS011;32110;45.724;21.276;2024-02-26T02:03:57;22.42;;;12.15;;
46407;SDS011;32110;45.724;21.276;2024-02-26T02:06:23;19.33;;;12.30;;
46407;SDS011;32110;45.724;21.276;2024-02-26T02:08:48;25.50;;;11.52;;
46407;SDS011;32110;45.724;21.276;2024-02-26T02:11:14;20.70;;;11.63;;
46407;SDS011;32110;45.724;21.276;2024-02-26T02:13:40;21.63;;;11.30;;
46407;SDS011;32110;45.724;21.276;2024-02-26T02:16:05;21.33;;;11.15;;
46407;SDS011;32110;45.724;21.276;2024-02-26T02:18:30;21.45;;;11.15;;
46407;SDS011;32110;45.724;21.276;2024-02-26T02:20:56;20.10;;;10.38;;
46407;SDS011;32110;45.724;21.276;2024-02-26T02:23:24;22.25;;;10.98;;
46407;SDS011;32110;45.724;21.276;2024-02-26T02:25:49;22.27;;;11.18;;
46407;SDS011;32110;45.724;21.276;2024-02-26T02:28:15;20.15;;;11.02;;
46407;SDS011;32110;45.724;21.276;2024-02-26T02:30:40;20.52;;;11.25;;
46407;SDS011;32110;45.724;21.276;2024-02-26T02:33:06;19.40;;;11.18;;
46407;SDS011;32110;45.724;21.276;2024-02-26T02:35:31;23.67;;;11.32;;
46407;SDS011;32110;45.724;21.276;2024-02-26T02:37:57;19.27;;;10.88;;
46407;SDS011;32110;45.724;21.276;2024-02-26T02:40:22;18.73;;;11.02;;
46407;SDS011;32110;45.724;21.276;2024-02-26T02:42:47;22.35;;;11.15;;
46407;SDS011;32110;45.724;21.276;2024-02-26T02:45:13;20.15;;;10.80;;
46407;SDS011;32110;45.724;21.276;2024-02-26T02:47:38;20.17;;;11.20;;
46407;SDS011;32110;45.724;21.276;2024-02-26T02:50:03;26.10;;;12.40;;
46407;SDS011;32110;45.724;21.276;2024-02-26T02:52:29;23.40;;;12.95;;
46407;SDS011;32110;45.724;21.276;2024-02-26T02:54:54;22.25;;;12.05;;
46407;SDS011;32110;45.724;21.276;2024-02-26T02:57:19;20.48;;;10.48;;
46407;SDS011;32110;45.724;21.276;2024-02-26T02:59:45;17.75;;;10.48;;
46407;SDS011;32110;45.724;21.276;2024-02-26T03:02:11;23.05;;;11.05;;
46407;SDS011;32110;45.724;21.276;2024-02-26T03:04:37;17.35;;;10.40;;
46407;SDS011;32110;45.724;21.276;2024-02-26T03:07:02;22.80;;;10.87;;
46407;SDS011;32110;45.724;21.276;2024-02-26T03:09:27;19.40;;;10.35;;
46407;SDS011;32110;45.724;21.276;2024-02-26T03:11:52;18.10;;;10.43;;
46407;SDS011;32110;45.724;21.276;2024-02-26T03:14:18;21.23;;;10.18;;
46407;SDS011;32110;45.724;21.276;2024-02-26T03:16:43;16.33;;;10.05;;
46407;SDS011;32110;45.724;21.276;2024-02-26T03:19:08;20.25;;;10.25;;
46407;SDS011;32110;45.724;21.276;2024-02-26T03:21:34;24.27;;;10.18;;
46407;SDS011;32110;45.724;21.276;2024-02-26T03:23:59;20.40;;;9.80;;
46407;SDS011;32110;45.724;21.276;2024-02-26T03:26:24;19.50;;;10.43;;
46407;SDS011;32110;45.724;21.276;2024-02-26T03:28:50;17.85;;;9.55;;
46407;SDS011;32110;45.724;21.276;2024-02-26T03:31:15;19.58;;;10.45;;
46407;SDS011;32110;45.724;21.276;2024-02-26T03:33:40;18.65;;;9.38;;
46407;SDS011;32110;45.724;21.276;2024-02-26T03:36:06;17.63;;;9.50;;
46407;SDS011;32110;45.724;21.276;2024-02-26T03:38:32;16.65;;;9.45;;
46407;SDS011;32110;45.724;21.276;2024-02-26T03:40:58;20.00;;;9.68;;
46407;SDS011;32110;45.724;21.276;2024-02-26T03:43:24;19.63;;;9.05;;
46407;SDS011;32110;45.724;21.276;2024-02-26T03:45:49;19.65;;;9.82;;
46407;SDS011;32110;45.724;21.276;2024-02-26T03:48:15;18.08;;;9.32;;
46407;SDS011;32110;45.724;21.276;2024-02-26T03:50:40;17.35;;;9.48;;
46407;SDS011;32110;45.724;21.276;2024-02-26T03:53:06;23.60;;;9.77;;
46407;SDS011;32110;45.724;21.276;2024-02-26T03:55:34;19.75;;;9.50;;
46407;SDS011;32110;45.724;21.276;2024-02-26T03:57:59;17.90;;;9.63;;
46407;SDS011;32110;45.724;21.276;2024-02-26T04:00:25;16.10;;;9.90;;
46407;SDS011;32110;45.724;21.276;2024-02-26T04:02:51;24.65;;;9.93;;
46407;SDS011;32110;45.724;21.276;2024-02-26T04:05:16;18.75;;;9.98;;
46407;SDS011;32110;45.724;21.276;2024-02-26T04:07:42;22.48;;;10.00;;
46407;SDS011;32110;45.724;21.276;2024-02-26T04:10:10;20.48;;;9.68;;
46407;SDS011;32110;45.724;21.276;2024-02-26T04:12:39;17.52;;;9.68;;
46407;SDS011;32110;45.724;21.276;2024-02-26T04:17:32;18.95;;;8.93;;
46407;SDS011;32110;45.724;21.276;2024-02-26T04:19:57;21.33;;;9.38;;
46407;SDS011;32110;45.724;21.276;2024-02-26T04:22:22;20.23;;;9.95;;
46407;SDS011;32110;45.724;21.276;2024-02-26T04:24:49;17.42;;;10.07;;
46407;SDS011;32110;45.724;21.276;2024-02-26T04:27:14;17.17;;;9.23;;
46407;SDS011;32110;45.724;21.276;2024-02-26T04:29:39;18.02;;;8.85;;
46407;SDS011;32110;45.724;21.276;2024-02-26T04:32:05;20.10;;;9.32;;
46407;SDS011;32110;45.724;21.276;2024-02-26T04:34:31;20.30;;;9.00;;
46407;SDS011;32110;45.724;21.276;2024-02-26T04:36:57;21.02;;;9.25;;
46407;SDS011;32110;45.724;21.276;2024-02-26T04:39:22;17.75;;;8.48;;
46407;SDS011;32110;45.724;21.276;2024-02-26T04:41:48;15.25;;;8.40;;
46407;SDS011;32110;45.724;21.276;2024-02-26T04:44:13;14.40;;;9.07;;
46407;SDS011;32110;45.724;21.276;2024-02-26T04:46:38;24.05;;;9.75;;
46407;SDS011;32110;45.724;21.276;2024-02-26T04:49:04;19.92;;;9.43;;
46407;SDS011;32110;45.724;21.276;2024-02-26T04:51:29;18.67;;;9.70;;
46407;SDS011;32110;45.724;21.276;2024-02-26T04:53:55;20.52;;;8.88;;
46407;SDS011;32110;45.724;21.276;2024-02-26T04:56:21;17.88;;;8.98;;
46407;SDS011;32110;45.724;21.276;2024-02-26T04:58:47;20.85;;;9.25;;
46407;SDS011;32110;45.724;21.276;2024-02-26T05:01:13;15.38;;;8.60;;
46407;SDS011;32110;45.724;21.276;2024-02-26T05:03:38;20.58;;;9.25;;
46407;SDS011;32110;45.724;21.276;2024-02-26T05:06:04;17.98;;;8.52;;
46407;SDS011;32110;45.724;21.276;2024-02-26T05:08:30;18.73;;;9.02;;
46407;SDS011;32110;45.724;21.276;2024-02-26T05:10:56;23.20;;;9.68;;
46407;SDS011;32110;45.724;21.276;2024-02-26T05:13:22;21.35;;;9.23;;
46407;SDS011;32110;45.724;21.276;2024-02-26T05:15:47;18.52;;;9.30;;
46407;SDS011;32110;45.724;21.276;2024-02-26T05:18:14;20.15;;;9.38;;
46407;SDS011;32110;45.724;21.276;2024-02-26T05:20:40;20.67;;;8.60;;
46407;SDS011;32110;45.724;21.276;2024-02-26T05:23:06;19.63;;;9.52;;
46407;SDS011;32110;45.724;21.276;2024-02-26T05:25:31;19.45;;;9.13;;
46407;SDS011;32110;45.724;21.276;2024-02-26T05:27:57;17.85;;;9.45;;
46407;SDS011;32110;45.724;21.276;2024-02-26T05:30:22;18.27;;;8.77;;
46407;SDS011;32110;45.724;21.276;2024-02-26T05:32:48;18.92;;;8.20;;
46407;SDS011;32110;45.724;21.276;2024-02-26T05:35:13;19.33;;;8.75;;
46407;SDS011;32110;45.724;21.276;2024-02-26T05:37:40;14.68;;;8.32;;
46407;SDS011;32110;45.724;21.276;2024-02-26T05:40:05;20.02;;;8.70;;
46407;SDS011;32110;45.724;21.276;2024-02-26T05:42:31;18.25;;;8.77;;
46407;SDS011;32110;45.724;21.276;2024-02-26T05:44:56;16.40;;;8.10;;
46407;SDS011;32110;45.724;21.276;2024-02-26T05:47:22;18.80;;;8.82;;
46407;SDS011;32110;45.724;21.276;2024-02-26T05:49:48;17.83;;;9.00;;
46407;SDS011;32110;45.724;21.276;2024-02-26T05:52:13;20.83;;;8.88;;
46407;SDS011;32110;45.724;21.276;2024-02-26T05:54:39;21.05;;;9.30;;
46407;SDS011;32110;45.724;21.276;2024-02-26T05:57:04;19.20;;;9.18;;
46407;SDS011;32110;45.724;21.276;2024-02-26T05:59:30;19.95;;;8.88;;
46407;SDS011;32110;45.724;21.276;2024-02-26T06:01:55;18.25;;;8.52;;
46407;SDS011;32110;45.724;21.276;2024-02-26T06:04:21;21.63;;;8.57;;
46407;SDS011;32110;45.724;21.276;2024-02-26T06:06:46;22.75;;;8.68;;
46407;SDS011;32110;45.724;21.276;2024-02-26T06:09:12;17.98;;;8.50;;
46407;SDS011;32110;45.724;21.276;2024-02-26T06:11:38;20.02;;;8.95;;
46407;SDS011;32110;45.724;21.276;2024-02-26T06:14:03;19.95;;;8.52;;
46407;SDS011;32110;45.724;21.276;2024-02-26T06:16:29;19.77;;;9.60;;
46407;SDS011;32110;45.724;21.276;2024-02-26T06:18:54;17.58;;;9.68;;
46407;SDS011;32110;45.724;21.276;2024-02-26T06:21:20;19.10;;;9.63;;
46407;SDS011;32110;45.724;21.276;2024-02-26T06:23:45;18.75;;;9.27;;
46407;SDS011;32110;45.724;21.276;2024-02-26T06:26:11;20.38;;;9.07;;
46407;SDS011;32110;45.724;21.276;2024-02-26T06:28:36;23.85;;;9.30;;
46407;SDS011;32110;45.724;21.276;2024-02-26T06:31:05;17.15;;;9.25;;
46407;SDS011;32110;45.724;21.276;2024-02-26T06:33:31;19.08;;;9.30;;
46407;SDS011;32110;45.724;21.276;2024-02-26T06:35:56;20.15;;;9.60;;
46407;SDS011;32110;45.724;21.276;2024-02-26T06:38:21;20.50;;;9.43;;
46407;SDS011;32110;45.724;21.276;2024-02-26T06:40:47;18.13;;;8.90;;
46407;SDS011;32110;45.724;21.276;2024-02-26T06:43:12;19.33;;;8.63;;
46407;SDS011;32110;45.724;21.276;2024-02-26T06:45:38;18.17;;;9.20;;
46407;SDS011;32110;45.724;21.276;2024-02-26T06:48:03;25.67;;;9.43;;
46407;SDS011;32110;45.724;21.276;2024-02-26T06:50:29;25.15;;;9.32;;
46407;SDS011;32110;45.724;21.276;2024-02-26T06:52:54;29.92;;;9.13;;
46407;SDS011;32110;45.724;21.276;2024-02-26T06:55:20;20.27;;;8.98;;
46407;SDS011;32110;45.724;21.276;2024-02-26T06:57:45;24.02;;;9.90;;
46407;SDS011;32110;45.724;21.276;2024-02-26T07:00:11;22.08;;;8.80;;
46407;SDS011;32110;45.724;21.276;2024-02-26T07:02:41;23.35;;;9.18;;
46407;SDS011;32110;45.724;21.276;2024-02-26T07:05:07;18.23;;;8.75;;
46407;SDS011;32110;45.724;21.276;2024-02-26T07:07:34;23.17;;;8.82;;
46407;SDS011;32110;45.724;21.276;2024-02-26T07:09:59;18.80;;;8.98;;
46407;SDS011;32110;45.724;21.276;2024-02-26T07:12:28;20.77;;;9.53;;
46407;SDS011;32110;45.724;21.276;2024-02-26T07:14:54;22.08;;;9.38;;
46407;SDS011;32110;45.724;21.276;2024-02-26T07:17:20;23.13;;;9.88;;
46407;SDS011;32110;45.724;21.276;2024-02-26T07:19:45;20.80;;;9.35;;
46407;SDS011;32110;45.724;21.276;2024-02-26T07:22:11;24.02;;;9.43;;
46407;SDS011;32110;45.724;21.276;2024-02-26T07:24:36;22.92;;;11.73;;
46407;SDS011;32110;45.724;21.276;2024-02-26T07:27:01;20.48;;;11.18;;
46407;SDS011;32110;45.724;21.276;2024-02-26T07:29:27;17.48;;;10.27;;
46407;SDS011;32110;45.724;21.276;2024-02-26T07:31:52;21.65;;;10.27;;
46407;SDS011;32110;45.724;21.276;2024-02-26T07:34:18;23.00;;;10.10;;
46407;SDS011;32110;45.724;21.276;2024-02-26T07:36:43;21.38;;;10.52;;
46407;SDS011;32110;45.724;21.276;2024-02-26T07:39:09;18.90;;;9.63;;
46407;SDS011;32110;45.724;21.276;2024-02-26T07:41:35;19.55;;;10.98;;
46407;SDS011;32110;45.724;21.276;2024-02-26T07:44:00;19.55;;;10.80;;
46407;SDS011;32110;45.724;21.276;2024-02-26T07:46:26;21.48;;;11.45;;
46407;SDS011;32110;45.724;21.276;2024-02-26T07:48:51;22.70;;;10.75;;
46407;SDS011;32110;45.724;21.276;2024-02-26T07:51:16;17.95;;;10.32;;
46407;SDS011;32110;45.724;21.276;2024-02-26T07:53:42;17.20;;;10.30;;
46407;SDS011;32110;45.724;21.276;2024-02-26T07:56:08;16.92;;;9.30;;
46407;SDS011;32110;45.724;21.276;2024-02-26T07:58:34;20.33;;;11.30;;
46407;SDS011;32110;45.724;21.276;2024-02-26T08:01:00;17.35;;;9.38;;
46407;SDS011;32110;45.724;21.276;2024-02-26T08:03:25;16.23;;;9.63;;
46407;SDS011;32110;45.724;21.276;2024-02-26T08:05:51;16.63;;;9.07;;
46407;SDS011;32110;45.724;21.276;2024-02-26T08:08:17;17.20;;;9.40;;
46407;SDS011;32110;45.724;21.276;2024-02-26T08:10:42;15.30;;;9.70;;
46407;SDS011;32110;45.724;21.276;2024-02-26T08:13:08;18.83;;;10.20;;
46407;SDS011;32110;45.724;21.276;2024-02-26T08:15:34;15.60;;;9.10;;
46407;SDS011;32110;45.724;21.276;2024-02-26T08:18:02;23.52;;;10.43;;
46407;SDS011;32110;45.724;21.276;2024-02-26T08:20:28;17.63;;;9.40;;
46407;SDS011;32110;45.724;21.276;2024-02-26T08:22:54;12.90;;;8.70;;
46407;SDS011;32110;45.724;21.276;2024-02-26T08:25:20;15.02;;;10.32;;
46407;SDS011;32110;45.724;21.276;2024-02-26T08:27:46;15.77;;;9.20;;
46407;SDS011;32110;45.724;21.276;2024-02-26T08:30:13;16.92;;;9.73;;
46407;SDS011;32110;45.724;21.276;2024-02-26T08:32:48;11.65;;;8.25;;
46407;SDS011;32110;45.724;21.276;2024-02-26T08:35:14;16.42;;;9.00;;
46407;SDS011;32110;45.724;21.276;2024-02-26T08:37:39;15.05;;;8.95;;
46407;SDS011;32110;45.724;21.276;2024-02-26T08:40:06;13.88;;;8.10;;
46407;SDS011;32110;45.724;21.276;2024-02-26T08:42:32;13.65;;;8.82;;
46407;SDS011;32110;45.724;21.276;2024-02-26T08:44:57;15.43;;;10.07;;
46407;SDS011;32110;45.724;21.276;2024-02-26T08:47:25;15.70;;;9.30;;
46407;SDS011;32110;45.724;21.276;2024-02-26T08:49:51;12.93;;;8.77;;
46407;SDS011;32110;45.724;21.276;2024-02-26T08:52:16;12.15;;;7.97;;
46407;SDS011;32110;45.724;21.276;2024-02-26T08:54:42;12.52;;;8.38;;
46407;SDS011;32110;45.724;21.276;2024-02-26T08:57:07;12.60;;;7.85;;
46407;SDS011;32110;45.724;21.276;2024-02-26T08:59:32;13.38;;;8.40;;
46407;SDS011;32110;45.724;21.276;2024-02-26T09:01:58;12.80;;;9.48;;
46407;SDS011;32110;45.724;21.276;2024-02-26T09:04:23;16.20;;;9.23;;
46407;SDS011;32110;45.724;21.276;2024-02-26T09:06:49;12.50;;;8.32;;
46407;SDS011;32110;45.724;21.276;2024-02-26T09:09:14;13.15;;;9.13;;
46407;SDS011;32110;45.724;21.276;2024-02-26T09:11:40;10.85;;;6.60;;
46407;SDS011;32110;45.724;21.276;2024-02-26T09:14:05;10.02;;;6.78;;
46407;SDS011;32110;45.724;21.276;2024-02-26T09:16:30;12.10;;;6.97;;
46407;SDS011;32110;45.724;21.276;2024-02-26T09:18:56;9.18;;;6.13;;
46407;SDS011;32110;45.724;21.276;2024-02-26T09:21:22;10.35;;;5.55;;
46407;SDS011;32110;45.724;21.276;2024-02-26T09:23:50;9.15;;;5.93;;
46407;SDS011;32110;45.724;21.276;2024-02-26T09:26:16;9.40;;;6.15;;
46407;SDS011;32110;45.724;21.276;2024-02-26T09:28:42;8.00;;;5.10;;
46407;SDS011;32110;45.724;21.276;2024-02-26T09:31:07;8.30;;;5.10;;
46407;SDS011;32110;45.724;21.276;2024-02-26T09:33:33;10.50;;;6.07;;
46407;SDS011;32110;45.724;21.276;2024-02-26T09:35:59;6.50;;;4.15;;
46407;SDS011;32110;45.724;21.276;2024-02-26T09:38:26;6.32;;;3.65;;
46407;SDS011;32110;45.724;21.276;2024-02-26T09:40:56;6.72;;;3.78;;
46407;SDS011;32110;45.724;21.276;2024-02-26T09:43:21;7.85;;;3.20;;
46407;SDS011;32110;45.724;21.276;2024-02-26T09:45:50;7.45;;;4.07;;
46407;SDS011;32110;45.724;21.276;2024-02-26T09:48:17;4.90;;;3.70;;
46407;SDS011;32110;45.724;21.276;2024-02-26T09:50:42;5.47;;;3.50;;
46407;SDS011;32110;45.724;21.276;2024-02-26T09:53:08;5.72;;;3.17;;
46407;SDS011;32110;45.724;21.276;2024-02-26T09:55:35;7.10;;;3.25;;
46407;SDS011;32110;45.724;21.276;2024-02-26T09:58:01;7.07;;;3.85;;
46407;SDS011;32110;45.724;21.276;2024-02-26T10:00:30;7.73;;;4.00;;
46407;SDS011;32110;45.724;21.276;2024-02-26T10:02:58;7.10;;;4.10;;
46407;SDS011;32110;45.724;21.276;2024-02-26T10:05:28;6.40;;;3.88;;
46407;SDS011;32110;45.724;21.276;2024-02-26T10:07:54;6.80;;;3.70;;
46407;SDS011;32110;45.724;21.276;2024-02-26T10:10:22;6.35;;;3.45;;
46407;SDS011;32110;45.724;21.276;2024-02-26T10:12:48;4.00;;;2.80;;
46407;SDS011;32110;45.724;21.276;2024-02-26T10:15:13;5.80;;;3.43;;
46407;SDS011;32110;45.724;21.276;2024-02-26T10:17:38;10.65;;;3.58;;
46407;SDS011;32110;45.724;21.276;2024-02-26T10:20:13;4.78;;;3.45;;
46407;SDS011;32110;45.724;21.276;2024-02-26T10:22:48;8.45;;;3.60;;
46407;SDS011;32110;45.724;21.276;2024-02-26T10:25:14;6.30;;;3.05;;
46407;SDS011;32110;45.724;21.276;2024-02-26T10:27:42;4.88;;;3.17;;
46407;SDS011;32110;45.724;21.276;2024-02-26T10:30:17;6.07;;;3.30;;
46407;SDS011;32110;45.724;21.276;2024-02-26T10:32:46;6.25;;;3.30;;
46407;SDS011;32110;45.724;21.276;2024-02-26T10:35:12;7.88;;;3.22;;
46407;SDS011;32110;45.724;21.276;2024-02-26T10:37:39;8.52;;;3.10;;
46407;SDS011;32110;45.724;21.276;2024-02-26T10:40:05;5.97;;;2.80;;
46407;SDS011;32110;45.724;21.276;2024-02-26T10:42:30;10.20;;;3.70;;
46407;SDS011;32110;45.724;21.276;2024-02-26T10:44:55;9.02;;;3.85;;
46407;SDS011;32110;45.724;21.276;2024-02-26T10:47:22;6.65;;;3.42;;
46407;SDS011;32110;45.724;21.276;2024-02-26T10:49:48;5.28;;;3.45;;
46407;SDS011;32110;45.724;21.276;2024-02-26T10:52:15;4.03;;;3.03;;
46407;SDS011;32110;45.724;21.276;2024-02-26T10:54:41;6.85;;;3.50;;
46407;SDS011;32110;45.724;21.276;2024-02-26T10:57:06;5.47;;;3.63;;
46407;SDS011;32110;45.724;21.276;2024-02-26T10:59:33;5.60;;;3.20;;
46407;SDS011;32110;45.724;21.276;2024-02-26T11:02:00;4.82;;;2.95;;
46407;SDS011;32110;45.724;21.276;2024-02-26T11:04:25;6.57;;;3.53;;
46407;SDS011;32110;45.724;21.276;2024-02-26T11:06:52;7.45;;;4.03;;
46407;SDS011;32110;45.724;21.276;2024-02-26T11:09:21;7.60;;;4.03;;
46407;SDS011;32110;45.724;21.276;2024-02-26T11:11:48;7.00;;;3.50;;
46407;SDS011;32110;45.724;21.276;2024-02-26T11:14:19;7.78;;;3.72;;
46407;SDS011;32110;45.724;21.276;2024-02-26T11:16:45;6.15;;;3.30;;
46407;SDS011;32110;45.724;21.276;2024-02-26T11:19:14;11.07;;;3.80;;
46407;SDS011;32110;45.724;21.276;2024-02-26T11:21:41;9.10;;;4.13;;
46407;SDS011;32110;45.724;21.276;2024-02-26T11:24:11;5.35;;;3.53;;
46407;SDS011;32110;45.724;21.276;2024-02-26T11:26:40;5.22;;;3.38;;
46407;SDS011;32110;45.724;21.276;2024-02-26T11:29:13;7.40;;;3.35;;
46407;SDS011;32110;45.724;21.276;2024-02-26T11:31:39;7.00;;;3.20;;
46407;SDS011;32110;45.724;21.276;2024-02-26T11:34:06;7.93;;;3.70;;
46407;SDS011;32110;45.724;21.276;2024-02-26T11:36:31;9.80;;;3.83;;
46407;SDS011;32110;45.724;21.276;2024-02-26T11:38:58;5.35;;;3.20;;
46407;SDS011;32110;45.724;21.276;2024-02-26T11:41:23;8.82;;;3.40;;
46407;SDS011;32110;45.724;21.276;2024-02-26T11:46:26;7.88;;;3.38;;
46407;SDS011;32110;45.724;21.276;2024-02-26T11:48:57;6.38;;;2.83;;
46407;SDS011;32110;45.724;21.276;2024-02-26T11:51:28;5.70;;;2.88;;
46407;SDS011;32110;45.724;21.276;2024-02-26T11:53:58;6.75;;;2.90;;
46407;SDS011;32110;45.724;21.276;2024-02-26T11:56:24;7.00;;;3.10;;
46407;SDS011;32110;45.724;21.276;2024-02-26T11:59:00;6.35;;;2.90;;
46407;SDS011;32110;45.724;21.276;2024-02-26T12:04:04;7.32;;;3.25;;
46407;SDS011;32110;45.724;21.276;2024-02-26T12:06:31;3.30;;;2.53;;
46407;SDS011;32110;45.724;21.276;2024-02-26T12:09:05;6.75;;;3.10;;
46407;SDS011;32110;45.724;21.276;2024-02-26T12:11:30;4.88;;;3.10;;
46407;SDS011;32110;45.724;21.276;2024-02-26T12:13:56;8.10;;;3.20;;
46407;SDS011;32110;45.724;21.276;2024-02-26T12:16:37;3.63;;;2.70;;
46407;SDS011;32110;45.724;21.276;2024-02-26T12:19:04;5.35;;;2.70;;
46407;SDS011;32110;45.724;21.276;2024-02-26T12:21:33;7.75;;;3.05;;
46407;SDS011;32110;45.724;21.276;2024-02-26T12:24:11;6.93;;;3.03;;
46407;SDS011;32110;45.724;21.276;2024-02-26T12:26:38;5.15;;;2.92;;
46407;SDS011;32110;45.724;21.276;2024-02-26T12:29:04;8.27;;;3.10;;
46407;SDS011;32110;45.724;21.276;2024-02-26T12:31:31;3.65;;;2.70;;
46407;SDS011;32110;45.724;21.276;2024-02-26T12:33:58;6.97;;;3.53;;
46407;SDS011;32110;45.724;21.276;2024-02-26T12:36:24;5.90;;;2.92;;
46407;SDS011;32110;45.724;21.276;2024-02-26T12:38:53;5.93;;;2.83;;
46407;SDS011;32110;45.724;21.276;2024-02-26T12:41:18;6.68;;;3.35;;
46407;SDS011;32110;45.724;21.276;2024-02-26T12:43:44;8.02;;;3.53;;
46407;SDS011;32110;45.724;21.276;2024-02-26T12:46:11;7.45;;;3.38;;
46407;SDS011;32110;45.724;21.276;2024-02-26T12:48:37;11.98;;;3.47;;
46407;SDS011;32110;45.724;21.276;2024-02-26T12:51:04;8.30;;;3.40;;
46407;SDS011;32110;45.724;21.276;2024-02-26T12:53:30;6.18;;;3.55;;
46407;SDS011;32110;45.724;21.276;2024-02-26T12:55:57;7.35;;;3.42;;
46407;SDS011;32110;45.724;21.276;2024-02-26T12:58:23;6.20;;;3.10;;
46407;SDS011;32110;45.724;21.276;2024-02-26T13:00:53;6.35;;;3.53;;
46407;SDS011;32110;45.724;21.276;2024-02-26T13:03:20;5.63;;;3.35;;
46407;SDS011;32110;45.724;21.276;2024-02-26T13:05:47;7.30;;;3.10;;
46407;SDS011;32110;45.724;21.276;2024-02-26T13:08:20;7.03;;;2.80;;
46407;SDS011;32110;45.724;21.276;2024-02-26T13:10:46;5.80;;;3.10;;
46407;SDS011;32110;45.724;21.276;2024-02-26T13:13:15;6.47;;;2.90;;
46407;SDS011;32110;45.724;21.276;2024-02-26T13:15:42;4.90;;;2.42;;
46407;SDS011;32110;45.724;21.276;2024-02-26T13:18:12;4.15;;;2.42;;
46407;SDS011;32110;45.724;21.276;2024-02-26T13:20:39;5.90;;;2.63;;
46407;SDS011;32110;45.724;21.276;2024-02-26T13:23:06;4.47;;;2.25;;
46407;SDS011;32110;45.724;21.276;2024-02-26T13:25:33;6.97;;;2.67;;
46407;SDS011;32110;45.724;21.276;2024-02-26T13:28:09;4.25;;;2.45;;
46407;SDS011;32110;45.724;21.276;2024-02-26T13:30:40;8.23;;;2.22;;
46407;SDS011;32110;45.724;21.276;2024-02-26T13:33:12;4.13;;;2.35;;
46407;SDS011;32110;45.724;21.276;2024-02-26T13:35:38;6.60;;;2.55;;
46407;SDS011;32110;45.724;21.276;2024-02-26T13:38:05;3.67;;;2.45;;
46407;SDS011;32110;45.724;21.276;2024-02-26T13:40:31;5.65;;;2.53;;
46407;SDS011;32110;45.724;21.276;2024-02-26T13:42:57;5.00;;;2.72;;
46407;SDS011;32110;45.724;21.276;2024-02-26T13:45:22;5.55;;;2.42;;
46407;SDS011;32110;45.724;21.276;2024-02-26T13:47:48;9.85;;;2.67;;
46407;SDS011;32110;45.724;21.276;2024-02-26T13:50:13;6.53;;;2.60;;
46407;SDS011;32110;45.724;21.276;2024-02-26T13:52:38;6.47;;;2.35;;
46407;SDS011;32110;45.724;21.276;2024-02-26T13:55:04;3.30;;;2.30;;
46407;SDS011;32110;45.724;21.276;2024-02-26T13:57:30;4.43;;;2.33;;
46407;SDS011;32110;45.724;21.276;2024-02-26T13:59:56;5.85;;;2.42;;
46407;SDS011;32110;45.724;21.276;2024-02-26T14:02:21;6.90;;;2.60;;
46407;SDS011;32110;45.724;21.276;2024-02-26T14:04:47;5.60;;;2.70;;
46407;SDS011;32110;45.724;21.276;2024-02-26T14:07:12;4.47;;;3.05;;
46407;SDS011;32110;45.724;21.276;2024-02-26T14:09:38;7.72;;;2.60;;
46407;SDS011;32110;45.724;21.276;2024-02-26T14:12:04;4.60;;;2.53;;
46407;SDS011;32110;45.724;21.276;2024-02-26T14:14:30;6.03;;;3.08;;
46407;SDS011;32110;45.724;21.276;2024-02-26T14:16:58;7.95;;;2.85;;
46407;SDS011;32110;45.724;21.276;2024-02-26T14:19:24;3.88;;;2.65;;
46407;SDS011;32110;45.724;21.276;2024-02-26T14:21:51;6.20;;;2.75;;